Time,TemperatureF,DewpointF,PressureIn,WindDirection,WindDirectionDegrees,WindSpeedMPH,WindSpeedGustMPH,Humidity,HourlyPrecipIn,Conditions,Clouds,dailyrainin,SolarRadiationWatts/m^2,SoftwareType,DateUTC
2013-06-03 00:00:00,39.0,37.0,-100.00,West,270,1.0,-999.0,90,-99.99,,,-99.99,0.000000,,2013-06-03 04:00:00,
2013-06-03 00:33:00,39.0,37.0,-100.00,West,270,1.0,-999.0,90,-99.99,,,-99.99,0.000000,,2013-06-03 04:33:00,
2013-06-03 00:42:00,39.0,37.0,-100.00,West,270,1.0,-999.0,90,-99.99,,,-99.99,0.000000,,2013-06-03 04:42:00,
2013-06-03 00:53:00,39.0,37.0,-100.00,West,270,1.0,-999.0,90,-99.99,,,-99.99,0.000000,,2013-06-03 04:53:00,
2013-06-03 01:00:00,36.0,34.0,-100.00,East,90,0.0,-999.0,94,-99.99,,,-99.99,0.000000,,2013-06-03 05:00:00,
2013-06-03 01:32:00,36.0,34.0,-100.00,East,90,0.0,-999.0,94,-99.99,,,-99.99,0.000000,,2013-06-03 05:32:00,
2013-06-03 01:43:00,36.0,34.0,-100.00,East,90,0.0,-999.0,94,-99.99,,,-99.99,0.000000,,2013-06-03 05:43:00,
2013-06-03 01:52:00,36.0,34.0,-100.00,East,90,0.0,-999.0,94,-99.99,,,-99.99,0.000000,,2013-06-03 05:52:00,
2013-06-03 02:00:00,35.0,35.0,-100.00,West,270,1.0,-999.0,96,-99.99,,,-99.99,0.000000,,2013-06-03 06:00:00,
2013-06-03 02:32:00,35.0,35.0,-100.00,West,270,1.0,-999.0,96,-99.99,,,-99.99,0.000000,,2013-06-03 06:32:00,
2013-06-03 02:42:00,35.0,35.0,-100.00,West,270,1.0,-999.0,96,-99.99,,,-99.99,0.000000,,2013-06-03 06:42:00,
2013-06-03 02:53:00,35.0,35.0,-100.00,West,270,1.0,-999.0,96,-99.99,,,-99.99,0.000000,,2013-06-03 06:53:00,
2013-06-03 03:00:00,36.0,35.0,-100.00,WNW,292,1.0,-999.0,96,-99.99,,,-99.99,0.000000,,2013-06-03 07:00:00,
2013-06-03 03:32:00,36.0,35.0,-100.00,WNW,292,1.0,-999.0,96,-99.99,,,-99.99,0.000000,,2013-06-03 07:32:00,
2013-06-03 03:42:00,36.0,35.0,-100.00,WNW,292,1.0,-999.0,96,-99.99,,,-99.99,0.000000,,2013-06-03 07:42:00,
2013-06-03 03:52:00,36.0,35.0,-100.00,WNW,292,1.0,-999.0,96,-99.99,,,-99.99,0.000000,,2013-06-03 07:52:00,
2013-06-03 04:00:00,36.0,36.0,-100.00,WNW,292,0.0,-999.0,97,-99.99,,,-99.99,0.000000,,2013-06-03 08:00:00,
2013-06-03 04:32:00,36.0,36.0,-100.00,WNW,292,0.0,-999.0,97,-99.99,,,-99.99,0.000000,,2013-06-03 08:32:00,
2013-06-03 04:42:00,36.0,36.0,-100.00,WNW,292,0.0,-999.0,97,-99.99,,,-99.99,0.000000,,2013-06-03 08:42:00,
2013-06-03 04:52:00,36.0,36.0,-100.00,WNW,292,0.0,-999.0,97,-99.99,,,-99.99,0.000000,,2013-06-03 08:52:00,
2013-06-03 05:00:00,38.0,37.0,-100.00,WNW,292,1.0,-999.0,97,-99.99,,,-99.99,0.000000,,2013-06-03 09:00:00,
2013-06-03 05:33:00,38.0,37.0,-100.00,WNW,292,1.0,-999.0,97,-99.99,,,-99.99,0.000000,,2013-06-03 09:33:00,
2013-06-03 05:43:00,38.0,37.0,-100.00,WNW,292,1.0,-999.0,97,-99.99,,,-99.99,0.000000,,2013-06-03 09:43:00,
2013-06-03 05:53:00,38.0,37.0,-100.00,WNW,292,1.0,-999.0,97,-99.99,,,-99.99,0.000000,,2013-06-03 09:53:00,
2013-06-03 06:00:00,40.0,38.0,-100.00,West,270,1.0,-999.0,94,-99.99,,,-99.99,1.160000,,2013-06-03 10:00:00,
2013-06-03 06:33:00,40.0,38.0,-100.00,West,270,1.0,-999.0,94,-99.99,,,-99.99,1.160000,,2013-06-03 10:33:00,
2013-06-03 06:42:00,40.0,38.0,-100.00,West,270,1.0,-999.0,94,-99.99,,,-99.99,1.160000,,2013-06-03 10:42:00,
2013-06-03 06:53:00,40.0,38.0,-100.00,West,270,1.0,-999.0,94,-99.99,,,-99.99,1.160000,,2013-06-03 10:53:00,
2013-06-03 07:00:00,41.0,40.0,-100.00,WSW,247,2.0,-999.0,93,-99.99,,,-99.99,15.080000,,2013-06-03 11:00:00,
2013-06-03 07:32:00,41.0,40.0,-100.00,WSW,247,2.0,-999.0,93,-99.99,,,-99.99,15.080000,,2013-06-03 11:32:00,
2013-06-03 07:42:00,41.0,40.0,-100.00,WSW,247,2.0,-999.0,93,-99.99,,,-99.99,15.080000,,2013-06-03 11:42:00,
2013-06-03 07:52:00,41.0,40.0,-100.00,WSW,247,2.0,-999.0,93,-99.99,,,-99.99,15.080000,,2013-06-03 11:52:00,
2013-06-03 08:00:00,45.0,42.0,-100.00,WSW,247,4.0,-999.0,91,-99.99,,,-99.99,194.880005,,2013-06-03 12:00:00,
2013-06-03 08:32:00,45.0,42.0,-100.00,WSW,247,4.0,-999.0,91,-99.99,,,-99.99,194.880005,,2013-06-03 12:32:00,
2013-06-03 08:42:00,45.0,42.0,-100.00,WSW,247,4.0,-999.0,91,-99.99,,,-99.99,194.880005,,2013-06-03 12:42:00,
2013-06-03 08:52:00,45.0,42.0,-100.00,WSW,247,4.0,-999.0,91,-99.99,,,-99.99,194.880005,,2013-06-03 12:52:00,
2013-06-03 09:00:00,47.0,42.0,-100.00,WSW,247,5.0,-999.0,83,-99.99,,,-99.99,366.559998,,2013-06-03 13:00:00,
2013-06-03 09:33:00,47.0,42.0,-100.00,WSW,247,5.0,-999.0,83,-99.99,,,-99.99,366.559998,,2013-06-03 13:33:00,
2013-06-03 09:43:00,47.0,42.0,-100.00,WSW,247,5.0,-999.0,83,-99.99,,,-99.99,366.559998,,2013-06-03 13:43:00,
2013-06-03 09:53:00,47.0,42.0,-100.00,WSW,247,5.0,-999.0,83,-99.99,,,-99.99,366.559998,,2013-06-03 13:53:00,
2013-06-03 10:00:00,49.0,40.0,-100.00,WSW,247,6.0,-999.0,70,-99.99,,,-99.99,537.080017,,2013-06-03 14:00:00,
2013-06-03 10:33:00,49.0,40.0,-100.00,WSW,247,6.0,-999.0,70,-99.99,,,-99.99,537.080017,,2013-06-03 14:33:00,
2013-06-03 10:42:00,49.0,40.0,-100.00,WSW,247,6.0,-999.0,70,-99.99,,,-99.99,537.080017,,2013-06-03 14:42:00,
2013-06-03 10:52:00,49.0,40.0,-100.00,WSW,247,6.0,-999.0,70,-99.99,,,-99.99,537.080017,,2013-06-03 14:52:00,
2013-06-03 11:00:00,50.0,43.0,-100.00,WSW,247,7.0,-999.0,78,-99.99,,,-99.99,683.239990,,2013-06-03 15:00:00,
2013-06-03 11:33:00,50.0,43.0,-100.00,WSW,247,7.0,-999.0,78,-99.99,,,-99.99,683.239990,,2013-06-03 15:33:00,
2013-06-03 11:43:00,50.0,43.0,-100.00,WSW,247,7.0,-999.0,78,-99.99,,,-99.99,683.239990,,2013-06-03 15:43:00,
2013-06-03 11:53:00,50.0,43.0,-100.00,WSW,247,7.0,-999.0,78,-99.99,,,-99.99,683.239990,,2013-06-03 15:53:00,
2013-06-03 12:00:00,51.0,45.0,-100.00,WSW,247,7.0,-999.0,80,-99.99,,,-99.99,818.960022,,2013-06-03 16:00:00,
2013-06-03 12:33:00,51.0,45.0,-100.00,WSW,247,7.0,-999.0,80,-99.99,,,-99.99,818.960022,,2013-06-03 16:33:00,
2013-06-03 12:42:00,51.0,45.0,-100.00,WSW,247,7.0,-999.0,80,-99.99,,,-99.99,818.960022,,2013-06-03 16:42:00,
2013-06-03 12:53:00,51.0,45.0,-100.00,WSW,247,7.0,-999.0,80,-99.99,,,-99.99,818.960022,,2013-06-03 16:53:00,
2013-06-03 13:00:00,51.0,45.0,-100.00,WSW,247,9.0,-999.0,80,-99.99,,,-99.99,900.159973,,2013-06-03 17:00:00,
2013-06-03 13:33:00,51.0,45.0,-100.00,WSW,247,9.0,-999.0,80,-99.99,,,-99.99,900.159973,,2013-06-03 17:33:00,
2013-06-03 13:42:00,51.0,45.0,-100.00,WSW,247,9.0,-999.0,80,-99.99,,,-99.99,900.159973,,2013-06-03 17:42:00,
2013-06-03 13:52:00,51.0,45.0,-100.00,WSW,247,9.0,-999.0,80,-99.99,,,-99.99,900.159973,,2013-06-03 17:52:00,
2013-06-03 14:00:00,51.0,45.0,-100.00,WSW,247,8.0,-999.0,78,-99.99,,,-99.99,934.960022,,2013-06-03 18:00:00,
2013-06-03 14:32:00,51.0,45.0,-100.00,WSW,247,8.0,-999.0,78,-99.99,,,-99.99,934.960022,,2013-06-03 18:32:00,
2013-06-03 14:43:00,51.0,45.0,-100.00,WSW,247,8.0,-999.0,78,-99.99,,,-99.99,934.960022,,2013-06-03 18:43:00,
2013-06-03 14:53:00,51.0,45.0,-100.00,WSW,247,8.0,-999.0,78,-99.99,,,-99.99,934.960022,,2013-06-03 18:53:00,
2013-06-03 15:00:00,53.0,46.0,-100.00,WSW,247,6.0,-999.0,77,-99.99,,,-99.99,918.719971,,2013-06-03 19:00:00,
2013-06-03 15:33:00,53.0,46.0,-100.00,WSW,247,6.0,-999.0,77,-99.99,,,-99.99,918.719971,,2013-06-03 19:33:00,
2013-06-03 15:42:00,53.0,46.0,-100.00,WSW,247,6.0,-999.0,77,-99.99,,,-99.99,918.719971,,2013-06-03 19:42:00,
2013-06-03 15:53:00,53.0,46.0,-100.00,WSW,247,6.0,-999.0,77,-99.99,,,-99.99,918.719971,,2013-06-03 19:53:00,
2013-06-03 16:00:00,54.0,46.0,-100.00,WSW,247,5.0,-999.0,73,-99.99,,,-99.99,853.760010,,2013-06-03 20:00:00,
2013-06-03 16:33:00,54.0,46.0,-100.00,WSW,247,5.0,-999.0,73,-99.99,,,-99.99,853.760010,,2013-06-03 20:33:00,
2013-06-03 16:43:00,54.0,46.0,-100.00,WSW,247,5.0,-999.0,73,-99.99,,,-99.99,853.760010,,2013-06-03 20:43:00,
2013-06-03 16:52:00,54.0,46.0,-100.00,WSW,247,5.0,-999.0,73,-99.99,,,-99.99,853.760010,,2013-06-03 20:52:00,
2013-06-03 17:00:00,57.0,45.0,-100.00,West,270,5.0,-999.0,65,-99.99,,,-99.99,740.080017,,2013-06-03 21:00:00,
2013-06-03 17:33:00,57.0,45.0,-100.00,West,270,5.0,-999.0,65,-99.99,,,-99.99,740.080017,,2013-06-03 21:33:00,
2013-06-03 17:43:00,57.0,45.0,-100.00,West,270,5.0,-999.0,65,-99.99,,,-99.99,740.080017,,2013-06-03 21:43:00,
2013-06-03 17:53:00,57.0,45.0,-100.00,West,270,5.0,-999.0,65,-99.99,,,-99.99,740.080017,,2013-06-03 21:53:00,
2013-06-03 18:00:00,56.0,44.0,-100.00,West,270,4.0,-999.0,63,-99.99,,,-99.99,560.280029,,2013-06-03 22:00:00,
2013-06-03 18:33:00,56.0,44.0,-100.00,West,270,4.0,-999.0,63,-99.99,,,-99.99,560.280029,,2013-06-03 22:33:00,
2013-06-03 18:42:00,56.0,44.0,-100.00,West,270,4.0,-999.0,63,-99.99,,,-99.99,560.280029,,2013-06-03 22:42:00,
2013-06-03 18:53:00,56.0,44.0,-100.00,West,270,4.0,-999.0,63,-99.99,,,-99.99,560.280029,,2013-06-03 22:53:00,
2013-06-03 19:00:00,56.0,42.0,-100.00,West,270,3.0,-999.0,60,-99.99,,,-99.99,411.799988,,2013-06-03 23:00:00,
2013-06-03 19:32:00,56.0,42.0,-100.00,West,270,3.0,-999.0,60,-99.99,,,-99.99,411.799988,,2013-06-03 23:32:00,
2013-06-03 19:42:00,56.0,42.0,-100.00,West,270,3.0,-999.0,60,-99.99,,,-99.99,411.799988,,2013-06-03 23:42:00,
2013-06-03 19:52:00,56.0,42.0,-100.00,West,270,3.0,-999.0,60,-99.99,,,-99.99,411.799988,,2013-06-03 23:52:00,
2013-06-03 20:00:00,56.0,43.0,-100.00,SSW,202,2.0,-999.0,60,-99.99,,,-99.99,252.880005,,2013-06-04 00:00:00,
2013-06-03 20:32:00,56.0,43.0,-100.00,SSW,202,2.0,-999.0,60,-99.99,,,-99.99,252.880005,,2013-06-04 00:32:00,
2013-06-03 20:42:00,56.0,43.0,-100.00,SSW,202,2.0,-999.0,60,-99.99,,,-99.99,252.880005,,2013-06-04 00:42:00,
2013-06-03 20:52:00,56.0,43.0,-100.00,SSW,202,2.0,-999.0,60,-99.99,,,-99.99,252.880005,,2013-06-04 00:52:00,
2013-06-03 21:00:00,52.0,42.0,-100.00,SSE,157,1.0,-999.0,70,-99.99,,,-99.99,71.919998,,2013-06-04 01:00:00,
2013-06-03 21:32:00,52.0,42.0,-100.00,SSE,157,1.0,-999.0,70,-99.99,,,-99.99,71.919998,,2013-06-04 01:32:00,
2013-06-03 21:42:00,52.0,42.0,-100.00,SSE,157,1.0,-999.0,70,-99.99,,,-99.99,71.919998,,2013-06-04 01:42:00,
2013-06-03 21:53:00,52.0,42.0,-100.00,SSE,157,1.0,-999.0,70,-99.99,,,-99.99,71.919998,,2013-06-04 01:53:00,
2013-06-03 22:00:00,45.0,41.0,-100.00,WNW,292,1.0,-999.0,87,-99.99,,,-99.99,2.320000,,2013-06-04 02:00:00,
2013-06-03 22:32:00,45.0,41.0,-100.00,WNW,292,1.0,-999.0,87,-99.99,,,-99.99,2.320000,,2013-06-04 02:32:00,
2013-06-03 22:42:00,45.0,41.0,-100.00,WNW,292,1.0,-999.0,87,-99.99,,,-99.99,2.320000,,2013-06-04 02:42:00,
2013-06-03 22:52:00,45.0,41.0,-100.00,WNW,292,1.0,-999.0,87,-99.99,,,-99.99,2.320000,,2013-06-04 02:52:00,
2013-06-03 23:00:00,44.0,41.0,-100.00,West,270,1.0,-999.0,89,-99.99,,,-99.99,0.000000,,2013-06-04 03:00:00,
2013-06-03 23:33:00,44.0,41.0,-100.00,West,270,1.0,-999.0,89,-99.99,,,-99.99,0.000000,,2013-06-04 03:33:00,
2013-06-03 23:43:00,44.0,41.0,-100.00,West,270,1.0,-999.0,89,-99.99,,,-99.99,0.000000,,2013-06-04 03:43:00,
2013-06-03 23:54:00,44.0,41.0,-100.00,West,270,1.0,-999.0,89,-99.99,,,-99.99,0.000000,,2013-06-04 03:54:00,